createdAt,value
2022-10-05T00:02:20.848Z,23.88
2022-10-05T00:07:19.123Z,23.72
2022-10-05T00:12:18.430Z,23.47
2022-10-05T00:17:18.738Z,23.10
2022-10-05T00:22:17.042Z,23.17
2022-10-05T00:27:18.364Z,23.10
2022-10-05T00:32:16.680Z,23.01
2022-10-05T00:37:16.026Z,22.94
2022-10-05T00:42:15.327Z,22.90
2022-10-05T00:47:13.641Z,22.79
2022-10-05T00:52:12.940Z,22.82
2022-10-05T00:57:12.262Z,23.02
2022-10-05T01:02:11.601Z,23.16
2022-10-05T01:07:10.892Z,23.31
2022-10-05T01:12:11.196Z,23.43
2022-10-05T01:17:09.503Z,23.68
2022-10-05T01:22:10.828Z,23.83
2022-10-05T01:27:08.109Z,23.88
2022-10-05T01:32:07.410Z,24.13
2022-10-05T01:37:06.745Z,24.30
2022-10-05T01:42:05.840Z,24.30
2022-10-05T01:47:05.118Z,24.27
2022-10-05T01:52:04.428Z,24.30
2022-10-05T01:57:03.716Z,24.28
2022-10-05T02:02:03.073Z,24.12
2022-10-05T02:07:02.209Z,24.02
2022-10-05T02:12:02.506Z,23.78
2022-10-05T02:17:00.805Z,23.68
2022-10-05T02:22:00.089Z,23.57
2022-10-05T02:26:59.425Z,23.25
2022-10-05T02:31:58.779Z,23.10
2022-10-05T02:36:59.901Z,23.02
2022-10-05T02:41:57.194Z,23.07
2022-10-05T02:46:58.072Z,23.09
2022-10-05T02:51:55.787Z,23.16
2022-10-05T02:56:55.087Z,23.19
2022-10-05T03:01:54.510Z,23.33
2022-10-05T03:06:53.616Z,22.95
2022-10-05T03:11:52.925Z,22.80
2022-10-05T03:16:52.250Z,23.16
2022-10-05T03:21:52.545Z,23.43
2022-10-05T03:26:50.833Z,23.61
2022-10-05T03:31:51.130Z,23.69
2022-10-05T03:36:49.667Z,23.63
2022-10-05T03:41:48.631Z,23.65
2022-10-05T03:46:48.303Z,23.73
2022-10-05T03:51:47.196Z,22.57
2022-10-05T03:56:45.769Z,22.54
2022-10-05T04:01:45.820Z,21.96
2022-10-05T04:06:45.365Z,21.74
2022-10-05T04:11:44.412Z,21.77
2022-10-05T04:16:44.958Z,21.49
2022-10-05T04:21:43.904Z,21.29
2022-10-05T04:26:42.198Z,21.16
2022-10-05T04:31:42.536Z,21.16
2022-10-05T04:36:40.813Z,20.99
2022-10-05T04:41:41.167Z,21.01
2022-10-05T04:46:39.321Z,21.10
2022-10-05T04:51:38.418Z,21.17
2022-10-05T04:56:38.731Z,21.10
2022-10-05T05:01:37.059Z,20.76
2022-10-05T05:06:36.381Z,20.89
2022-10-05T05:11:36.712Z,21.07
2022-10-05T05:16:36.088Z,21.09
2022-10-05T05:21:35.215Z,20.95
2022-10-05T05:26:38.149Z,20.88
2022-10-05T05:31:33.799Z,21.09
2022-10-05T05:36:33.099Z,21.04
2022-10-05T05:41:31.197Z,20.99
2022-10-05T05:46:51.560Z,20.89
2022-10-05T05:51:29.690Z,20.97
2022-10-05T05:56:29.009Z,20.79
2022-10-05T06:01:33.958Z,20.77
2022-10-05T06:06:27.619Z,20.58
2022-10-05T06:11:26.930Z,20.66
2022-10-05T06:16:27.255Z,20.54
2022-10-05T06:21:27.548Z,20.51
2022-10-05T06:26:24.806Z,20.06
2022-10-05T06:31:25.170Z,20.02
2022-10-05T06:36:24.287Z,20.31
2022-10-05T06:41:22.612Z,20.38
2022-10-05T06:46:22.039Z,20.33
2022-10-05T06:51:21.257Z,20.48
2022-10-05T06:56:20.560Z,20.80
2022-10-05T07:01:19.910Z,21.65
2022-10-05T07:06:21.029Z,21.13
2022-10-05T07:11:18.379Z,20.82
2022-10-05T07:16:17.562Z,21.12
2022-10-05T07:21:17.752Z,21.53
2022-10-05T07:26:15.853Z,22.40
2022-10-05T07:31:16.202Z,22.70
2022-10-05T07:36:14.313Z,22.91
2022-10-05T07:41:13.623Z,23.05
2022-10-05T07:46:12.975Z,23.04
2022-10-05T07:51:12.094Z,23.07
2022-10-05T07:56:10.412Z,22.65
2022-10-05T08:01:12.718Z,22.76
2022-10-05T08:06:15.735Z,22.97
2022-10-05T08:11:09.218Z,22.83
2022-10-05T08:16:08.555Z,22.77
2022-10-05T08:21:07.877Z,22.90
2022-10-05T08:26:07.201Z,22.97
2022-10-05T08:31:06.576Z,23.12
2022-10-05T08:36:06.763Z,23.19
2022-10-05T08:41:04.957Z,23.38
2022-10-05T08:46:05.170Z,23.53
2022-10-05T08:51:04.308Z,23.66
2022-10-05T08:56:03.611Z,23.72
2022-10-05T09:01:01.997Z,23.87
2022-10-05T09:06:02.136Z,23.84
2022-10-05T09:11:00.442Z,23.98
2022-10-05T09:16:02.891Z,24.00
2022-10-05T09:20:58.978Z,24.12
2022-10-05T09:25:58.276Z,24.32
2022-10-05T09:30:57.618Z,24.30
2022-10-05T09:35:57.770Z,24.31
2022-10-05T09:40:57.049Z,24.28
2022-10-05T09:45:55.440Z,24.21
2022-10-05T09:50:54.544Z,24.18
2022-10-05T09:55:54.920Z,24.13
2022-10-05T10:01:03.711Z,24.06
2022-10-05T10:05:53.188Z,23.97
2022-10-05T10:10:51.494Z,24.00
2022-10-05T10:15:50.859Z,23.94
2022-10-05T10:20:51.148Z,23.93
2022-10-05T10:25:49.258Z,23.90
2022-10-05T10:30:48.461Z,23.84
2022-10-05T10:35:47.623Z,23.87
2022-10-05T10:40:46.740Z,23.88
2022-10-05T10:45:46.082Z,23.87
2022-10-05T10:50:46.250Z,23.93
2022-10-05T10:55:44.341Z,23.85
2022-10-05T11:00:43.651Z,23.83
2022-10-05T11:05:46.408Z,23.83
2022-10-05T11:10:42.134Z,23.78
2022-10-05T11:15:41.551Z,23.72
2022-10-05T11:20:40.639Z,23.69
2022-10-05T11:25:40.996Z,23.63
2022-10-05T11:30:39.336Z,23.60
2022-10-05T11:35:38.458Z,23.57
2022-10-05T11:40:38.031Z,23.51
2022-10-05T11:45:37.198Z,23.50
2022-10-05T11:50:36.443Z,23.43
2022-10-05T11:55:39.383Z,23.40
2022-10-05T12:00:34.686Z,23.38
2022-10-05T12:05:34.996Z,23.33
2022-10-05T12:10:34.339Z,23.32
2022-10-05T12:15:33.497Z,23.31
2022-10-05T12:20:33.815Z,23.25
2022-10-05T12:25:31.126Z,23.22
2022-10-05T12:30:30.460Z,23.22
2022-10-05T12:35:47.020Z,23.20
2022-10-05T12:40:28.971Z,23.19
2022-10-05T12:45:28.387Z,23.17
2022-10-05T12:50:28.527Z,23.13
2022-10-05T12:55:26.833Z,23.15
2022-10-05T13:00:27.208Z,23.12
2022-10-05T13:05:25.368Z,23.12
2022-10-05T13:10:24.495Z,23.09
2022-10-05T13:15:24.668Z,23.10
2022-10-05T13:20:24.010Z,23.07
2022-10-05T13:25:23.181Z,23.13
2022-10-05T13:30:21.332Z,23.36
2022-10-05T13:35:21.636Z,23.54
2022-10-05T13:40:19.957Z,23.78
2022-10-05T13:45:20.114Z,23.95
2022-10-05T13:50:19.252Z,24.06
2022-10-05T13:55:18.385Z,24.15
2022-10-05T14:00:22.627Z,24.22
2022-10-05T14:05:15.717Z,24.24
2022-10-05T14:10:14.826Z,24.21
2022-10-05T14:15:14.137Z,24.21
2022-10-05T14:20:13.489Z,24.18
2022-10-05T14:25:12.627Z,24.13
2022-10-05T14:30:12.755Z,24.09
2022-10-05T14:35:12.094Z,24.05
2022-10-05T14:40:10.415Z,23.97
2022-10-05T14:45:09.724Z,23.93
2022-10-05T14:50:11.207Z,23.90
2022-10-05T14:55:10.306Z,23.80
2022-10-05T15:00:09.675Z,23.76
2022-10-05T15:05:07.802Z,23.69
2022-10-05T15:10:06.080Z,23.66
2022-10-05T15:15:06.417Z,23.57
2022-10-05T15:20:04.527Z,23.53
2022-10-05T15:25:04.848Z,23.47
2022-10-05T15:30:04.178Z,23.42
2022-10-05T15:35:02.485Z,23.36
2022-10-05T15:40:01.796Z,23.32
2022-10-05T15:45:00.144Z,23.28
2022-10-05T15:50:01.252Z,23.23
2022-10-05T15:55:00.566Z,23.22
2022-10-05T15:59:58.828Z,23.16
2022-10-05T16:05:01.146Z,23.15
2022-10-05T16:09:58.375Z,23.10
2022-10-05T16:14:55.488Z,23.04
2022-10-05T16:19:55.829Z,23.00
2022-10-05T16:24:55.142Z,23.01
2022-10-05T16:29:55.431Z,23.20
2022-10-05T16:34:53.725Z,23.33
2022-10-05T16:39:54.048Z,23.50
2022-10-05T16:44:53.358Z,23.57
2022-10-05T16:49:51.685Z,23.55
2022-10-05T16:54:51.023Z,23.66
2022-10-05T16:59:51.140Z,23.65
2022-10-05T17:04:49.476Z,23.57
2022-10-05T17:09:49.801Z,23.27
2022-10-05T17:14:49.092Z,23.01
2022-10-05T17:19:49.416Z,22.70
2022-10-05T17:24:46.719Z,22.64
2022-10-05T17:29:45.879Z,22.31
2022-10-05T17:34:46.113Z,22.28
2022-10-05T17:39:44.249Z,22.05
2022-10-05T17:44:43.571Z,21.99
2022-10-05T17:49:42.965Z,21.91
2022-10-05T17:54:42.060Z,21.91
2022-10-05T17:59:42.368Z,21.77
2022-10-05T18:04:40.657Z,21.90
2022-10-05T18:09:40.966Z,21.99
2022-10-05T18:14:40.406Z,22.36
2022-10-05T18:19:38.519Z,22.49
2022-10-05T18:24:41.875Z,22.55
2022-10-05T18:29:37.222Z,22.68
2022-10-05T18:34:36.144Z,22.91
2022-10-05T18:39:35.469Z,22.94
2022-10-05T18:44:35.773Z,22.73
2022-10-05T18:49:34.880Z,22.65
2022-10-05T18:54:36.636Z,23.27
2022-10-05T18:59:32.429Z,23.47
2022-10-05T19:04:31.751Z,23.40
2022-10-05T19:09:31.067Z,23.57
2022-10-05T19:14:29.890Z,23.53
2022-10-05T19:19:33.347Z,23.23
2022-10-05T19:24:29.257Z,23.07
2022-10-05T19:29:27.674Z,23.23
2022-10-05T19:34:26.940Z,23.35
2022-10-05T19:39:25.931Z,23.39
2022-10-05T19:44:26.533Z,23.39
2022-10-05T19:49:24.456Z,23.39
2022-10-05T19:54:23.888Z,23.35
2022-10-05T19:59:26.126Z,23.35
2022-10-05T20:04:23.513Z,23.33
2022-10-05T20:09:21.476Z,23.32
2022-10-05T20:14:20.813Z,22.97
2022-10-05T20:19:19.921Z,23.05
2022-10-05T20:24:19.215Z,22.79
2022-10-05T20:29:18.551Z,22.61
2022-10-05T20:34:17.915Z,22.62
2022-10-05T20:39:17.052Z,22.55
2022-10-05T20:44:17.388Z,22.57
2022-10-05T20:49:15.680Z,22.43
2022-10-05T20:54:14.980Z,22.36
2022-10-05T20:59:14.286Z,22.40
2022-10-05T21:04:14.663Z,22.37
2022-10-05T21:09:13.765Z,22.25
2022-10-05T21:14:13.069Z,22.02
2022-10-05T21:19:12.394Z,22.02
2022-10-05T21:24:10.675Z,21.71
2022-10-05T21:29:12.555Z,21.79
2022-10-05T21:34:10.335Z,22.12
2022-10-05T21:39:08.628Z,22.20
2022-10-05T21:44:07.042Z,22.14
2022-10-05T21:49:07.161Z,21.91
2022-10-05T21:54:09.638Z,21.77
2022-10-05T21:59:06.735Z,23.05
2022-10-05T22:04:05.007Z,24.35
2022-10-05T22:09:04.298Z,25.39
2022-10-05T22:14:04.584Z,25.38
2022-10-05T22:19:03.889Z,26.18
2022-10-05T22:24:02.182Z,26.69
2022-10-05T22:29:01.477Z,25.95
2022-10-05T22:34:01.774Z,25.85
2022-10-05T22:39:00.061Z,25.43
2022-10-05T22:43:59.351Z,24.99
2022-10-05T22:48:58.678Z,24.88
2022-10-05T22:53:57.999Z,24.55
2022-10-05T22:58:57.334Z,25.15
2022-10-05T23:03:56.646Z,25.80
2022-10-05T23:08:56.970Z,25.80
2022-10-05T23:13:57.260Z,26.28
2022-10-05T23:18:54.572Z,25.87
2022-10-05T23:23:53.889Z,25.62
2022-10-05T23:28:53.187Z,25.72
2022-10-05T23:33:52.488Z,25.17
2022-10-05T23:38:52.795Z,25.09
2022-10-05T23:43:51.077Z,24.98
2022-10-05T23:48:51.439Z,24.73
2022-10-05T23:53:49.603Z,24.34
2022-10-05T23:58:48.703Z,24.10
